Airfield :
LOGIN :

Register | Disclaimer

   EN    FR    IT 

 










Legend :    VFR   Marginal VFR   IFR   Intensive IFR   Very Intensive IFR
Visi :
Ceiling :
>= 8 km
>= 3000ft
5 to 8 km
1000 to 3000 ft
1500m to 5 km
500 to 1000 ft
800 to 1500m
200 to 500 ft
< 800m
< 200 ft
Symbols :   Thunderstorms  Fog  Heavy snow  Heavy precipitations  Wind > 20 kt
SIGMETs :     Misc.  Thunderstorms  Icing  Turbulence  Mountain Waves  Volcanic Ashes






- Airport Elevation : 200 ft


EBBL - Klein Brogel AB

CURRENT METAR :
  • 151355Z AUTO 09007KT 9999 FEW088/// SCT110/// 27/16 Q1014 BLU

EXPIRED METARs :
  • 151325Z AUTO 08004KT 9999 FEW035/// SCT120/// 28/18 Q1014 BLU
  • 151255Z AUTO 07007KT 9999 SCT037/// 28/18 Q1014 BLU
  • 151225Z AUTO 35003KT 9999 SCT035/// SCT058/// BKN100/// 26/17 Q1014 BLU
  • 151155Z AUTO VRB02KT 9999 SCT056/// BKN097/// 26/17 Q1015 BLU
  • 151125Z AUTO VRB01KT 9999 FEW027/// SCT062/// BKN130/// 26/18 Q1015 BLU

TAF TAF EBBL
Valid from the 15 at 13:00 until the 15 at 22:00 UTC


151141Z 1513/1522 VRB04KT 9999 SCT035
TEMPO 1514/1522 4000 SHRA BKN030
PROB30
TEMPO 1515/1522 VRB10G25KT 1500 TSRAGR BKN025CB



MET'MAP, your aeronautical weather chart ! - Copyright ORBIFLY December 2007 - Disclaimer

ORBIFLY MET'MAP TEAM :

Programming & Development : Alexandra Zaïnal
Concept & original design : Baudouin d'Aumeries
Assistance for programming : Marc-Olivier Méhu
Technical & hardware support : Manuel Goepfert

Contact : metmap@orbifly.com




SOURCES & CREDITS :

   NOAA